Terminal Aerodrome Forecast
Issued by NWS Twin Cities, MN

Home | Current Version | Previous Version | Text Only | Print | Product List | Glossary On
Versions: 1 2 3 4 5 6 7 8 9 10 11 12 13 14 15 16 17 18 19 20
000
FTUS43 KMPX 241700
TAFEAU
TAF
KEAU 241720Z 2418/2518 19007KT P6SM SCT050 SCT250
     FM250400 15005KT P6SM BKN080
     FM251100 14006KT P6SM SCT040 BKN080
     FM251500 16010KT P6SM SCT020 BKN040=

USA.gov is the U.S. government's official web portal to all federal, state and local government web resources and services.